createdAt,value
2018-05-08T00:01:35.292Z,7.70
2018-05-08T00:04:01.293Z,7.87
2018-05-08T00:06:27.289Z,7.53
2018-05-08T00:08:53.320Z,7.47
2018-05-08T00:11:19.335Z,7.70
2018-05-08T00:13:45.340Z,7.87
2018-05-08T00:16:11.356Z,8.90
2018-05-08T00:18:37.342Z,9.13
2018-05-08T00:21:03.319Z,7.70
2018-05-08T00:23:29.377Z,8.13
2018-05-08T00:25:55.395Z,8.20
2018-05-08T00:28:21.503Z,8.70
2018-05-08T00:30:47.498Z,7.77
2018-05-08T00:33:13.589Z,8.10
2018-05-08T00:35:39.617Z,8.77
2018-05-08T00:38:05.621Z,8.40
2018-05-08T00:40:31.636Z,8.20
2018-05-08T00:42:57.647Z,8.53
2018-05-08T00:45:23.636Z,9.23
2018-05-08T00:47:49.655Z,8.37
2018-05-08T00:50:15.923Z,9.17
2018-05-08T00:52:41.979Z,8.87
2018-05-08T00:55:08.100Z,8.47
2018-05-08T00:57:34.144Z,8.27
2018-05-08T01:00:00.132Z,8.83
2018-05-08T01:02:26.248Z,8.37
2018-05-08T01:04:52.435Z,8.67
2018-05-08T01:07:18.357Z,8.93
2018-05-08T01:09:44.421Z,8.33
2018-05-08T01:12:10.500Z,9.37
2018-05-08T01:14:36.527Z,9.07
2018-05-08T01:17:02.607Z,8.70
2018-05-08T01:19:28.709Z,8.93
2018-05-08T01:21:54.721Z,8.93
2018-05-08T01:24:21.335Z,9.50
2018-05-08T01:26:47.385Z,8.80
2018-05-08T01:29:13.364Z,9.37
2018-05-08T01:31:39.382Z,8.10
2018-05-08T01:34:05.375Z,10.03
2018-05-08T01:36:31.433Z,8.57
2018-05-08T01:38:57.456Z,8.47
2018-05-08T01:41:23.498Z,9.03
2018-05-08T01:43:49.514Z,10.00
2018-05-08T01:46:15.547Z,8.37
2018-05-08T01:48:41.593Z,9.63
2018-05-08T01:51:07.641Z,8.93
2018-05-08T01:53:33.731Z,9.10
2018-05-08T01:55:59.751Z,9.70
2018-05-08T01:58:25.788Z,9.50
2018-05-08T02:00:51.856Z,8.90
2018-05-08T02:03:17.887Z,9.10
2018-05-08T02:05:43.900Z,8.50
2018-05-08T02:08:09.928Z,9.43
2018-05-08T02:10:35.920Z,9.73
2018-05-08T02:13:01.998Z,9.37
2018-05-08T02:15:28.046Z,9.20
2018-05-08T02:17:54.042Z,9.03
2018-05-08T02:20:20.065Z,8.83
2018-05-08T02:22:46.289Z,8.10
2018-05-08T02:25:12.341Z,8.73
2018-05-08T02:27:38.353Z,9.60
2018-05-08T02:30:04.380Z,9.73
2018-05-08T02:32:30.512Z,9.40
2018-05-08T02:34:56.561Z,9.53
2018-05-08T02:37:22.572Z,9.33
2018-05-08T02:39:48.598Z,9.43
2018-05-08T02:42:14.710Z,9.73
2018-05-08T02:44:40.839Z,9.70
2018-05-08T02:47:06.831Z,9.23
2018-05-08T02:49:32.834Z,9.40
2018-05-08T02:51:58.987Z,9.07
2018-05-08T02:54:25.028Z,10.00
2018-05-08T02:56:51.016Z,9.13
2018-05-08T02:59:17.042Z,8.97
2018-05-08T03:01:43.108Z,9.27
2018-05-08T03:04:09.092Z,9.77
2018-05-08T03:06:35.104Z,8.60
2018-05-08T03:09:01.180Z,9.60
2018-05-08T03:11:27.155Z,10.10
2018-05-08T03:13:53.156Z,9.77
2018-05-08T03:16:19.196Z,9.10
2018-05-08T03:18:45.195Z,10.70
2018-05-08T03:21:11.230Z,10.03
2018-05-08T03:23:37.236Z,10.10
2018-05-08T03:26:03.229Z,10.27
2018-05-08T03:28:29.267Z,9.93
2018-05-08T03:30:55.373Z,9.30
2018-05-08T03:33:21.411Z,9.87
2018-05-08T03:35:47.421Z,9.03
2018-05-08T03:38:13.517Z,10.27
2018-05-08T03:40:39.522Z,10.40
2018-05-08T03:43:05.573Z,9.73
2018-05-08T03:45:31.592Z,9.77
2018-05-08T03:47:57.605Z,10.60
2018-05-08T03:50:23.672Z,9.20
2018-05-08T03:52:50.420Z,9.50
2018-05-08T03:55:16.465Z,10.20
2018-05-08T03:57:42.462Z,10.53
2018-05-08T04:00:08.560Z,10.60
2018-05-08T04:02:46.777Z,10.40
2018-05-08T04:05:25.024Z,10.07
2018-05-08T04:08:03.154Z,11.17
2018-05-08T04:10:29.241Z,10.50
2018-05-08T04:12:55.384Z,9.80
2018-05-08T04:15:22.243Z,10.43
2018-05-08T04:17:48.374Z,10.77
2018-05-08T04:20:14.516Z,10.87
2018-05-08T04:22:40.559Z,11.50
2018-05-08T04:25:06.566Z,12.00
2018-05-08T04:27:32.679Z,12.03
2018-05-08T04:29:58.746Z,10.77
2018-05-08T04:32:24.770Z,10.83
2018-05-08T04:34:50.809Z,10.90
2018-05-08T04:37:17.448Z,10.97
2018-05-08T04:39:43.501Z,10.83
2018-05-08T04:42:09.588Z,10.53
2018-05-08T04:44:35.617Z,10.57
2018-05-08T04:47:01.644Z,10.93
2018-05-08T04:49:27.694Z,11.17
2018-05-08T04:51:53.721Z,11.50
2018-05-08T04:54:19.748Z,11.10
2018-05-08T04:56:45.772Z,11.17
2018-05-08T04:59:11.768Z,11.57
2018-05-08T05:01:37.783Z,9.83
2018-05-08T05:04:03.881Z,10.17
2018-05-08T05:06:29.953Z,11.20
2018-05-08T05:08:55.981Z,11.10
2018-05-08T05:11:22.063Z,10.77
2018-05-08T05:13:48.199Z,10.17
2018-05-08T05:16:14.265Z,10.57
2018-05-08T05:18:40.347Z,10.57
2018-05-08T05:21:06.380Z,10.37
2018-05-08T05:23:32.492Z,10.63
2018-05-08T05:25:58.592Z,10.03
2018-05-08T05:28:24.591Z,10.47
2018-05-08T05:30:50.633Z,10.37
2018-05-08T05:33:16.751Z,10.70
2018-05-08T05:35:42.793Z,10.83
2018-05-08T05:38:08.818Z,10.30
2018-05-08T05:40:34.916Z,10.20
2018-05-08T05:43:00.973Z,9.13
2018-05-08T05:45:26.993Z,10.90
2018-05-08T05:47:53.044Z,11.20
2018-05-08T05:50:19.049Z,10.13
2018-05-08T05:52:45.043Z,9.43
2018-05-08T05:55:11.033Z,10.20
2018-05-08T05:57:37.053Z,10.50
2018-05-08T06:00:03.249Z,10.03
2018-05-08T06:02:29.252Z,10.50
2018-05-08T06:04:55.275Z,10.00
2018-05-08T06:07:21.283Z,9.57
2018-05-08T06:09:47.285Z,9.97
2018-05-08T06:12:13.318Z,8.97
2018-05-08T06:14:39.383Z,9.30
2018-05-08T06:17:05.396Z,10.80
2018-05-08T06:19:31.474Z,9.30
2018-05-08T06:21:57.668Z,10.00
2018-05-08T06:24:23.711Z,10.03
2018-05-08T06:26:49.739Z,10.47
2018-05-08T06:29:15.735Z,9.83
2018-05-08T06:31:41.721Z,10.83
2018-05-08T06:34:07.740Z,10.20
2018-05-08T06:36:33.733Z,9.90
2018-05-08T06:38:59.775Z,10.47
2018-05-08T06:41:25.825Z,9.47
2018-05-08T06:43:51.844Z,10.23
2018-05-08T06:46:17.895Z,8.93
2018-05-08T06:48:43.931Z,8.80
2018-05-08T06:51:09.935Z,9.00
2018-05-08T06:53:35.952Z,8.90
2018-05-08T06:56:01.965Z,8.87
2018-05-08T06:58:27.992Z,9.10
2018-05-08T07:00:54.021Z,10.57
2018-05-08T07:03:20.001Z,8.30
2018-05-08T07:05:46.200Z,8.73
2018-05-08T07:08:12.247Z,8.23
2018-05-08T07:10:38.284Z,8.30
2018-05-08T07:13:04.331Z,7.97
2018-05-08T07:15:30.552Z,8.10
2018-05-08T07:17:56.706Z,7.33
2018-05-08T07:20:22.876Z,8.13
2018-05-08T07:22:48.930Z,8.13
2018-05-08T07:25:14.940Z,7.73
2018-05-08T07:27:40.971Z,7.47
2018-05-08T07:30:07.030Z,8.00
2018-05-08T07:32:33.069Z,7.57
2018-05-08T07:34:59.168Z,7.80
2018-05-08T07:37:25.202Z,7.70
2018-05-08T07:39:51.221Z,7.43
2018-05-08T07:42:17.235Z,8.00
2018-05-08T07:44:43.304Z,7.30
2018-05-08T07:47:09.377Z,7.90
2018-05-08T07:49:35.412Z,7.47
2018-05-08T07:52:01.456Z,7.53
2018-05-08T07:54:27.520Z,7.93
2018-05-08T07:56:53.527Z,7.67
2018-05-08T07:59:19.568Z,7.53
2018-05-08T08:01:45.632Z,8.10
2018-05-08T08:04:11.626Z,8.10
2018-05-08T08:06:37.677Z,7.40
2018-05-08T08:09:03.754Z,7.30
2018-05-08T08:11:29.804Z,7.50
2018-05-08T08:13:55.842Z,7.50
2018-05-08T08:16:21.852Z,7.00
2018-05-08T08:18:47.909Z,7.50
2018-05-08T08:21:13.959Z,6.90
2018-05-08T08:23:39.954Z,7.20
2018-05-08T08:26:05.958Z,7.73
2018-05-08T08:28:32.065Z,6.97
2018-05-08T08:30:58.081Z,7.60
2018-05-08T08:33:24.085Z,7.17
2018-05-08T08:35:50.198Z,7.97
2018-05-08T08:38:16.301Z,7.20
2018-05-08T08:40:42.283Z,7.70
2018-05-08T08:43:08.395Z,6.47
2018-05-08T08:45:34.508Z,7.50
2018-05-08T08:48:00.587Z,7.87
2018-05-08T08:50:26.634Z,8.17
2018-05-08T08:52:52.651Z,7.00
2018-05-08T08:55:18.687Z,7.33
2018-05-08T08:57:44.784Z,7.50
2018-05-08T09:00:10.863Z,7.83
2018-05-08T09:02:36.904Z,8.50
2018-05-08T09:05:02.967Z,8.07
2018-05-08T09:07:29.001Z,7.27
2018-05-08T09:09:55.061Z,8.40
2018-05-08T09:12:21.077Z,7.60
2018-05-08T09:14:47.220Z,8.00
2018-05-08T09:17:13.234Z,6.63
2018-05-08T09:19:39.377Z,7.33
2018-05-08T09:22:05.366Z,7.50
2018-05-08T09:24:31.424Z,7.10
2018-05-08T09:26:57.477Z,6.77
2018-05-08T09:29:23.505Z,6.30
2018-05-08T09:31:50.146Z,6.00
2018-05-08T09:34:16.207Z,7.17
2018-05-08T09:36:42.256Z,6.83
2018-05-08T09:39:08.417Z,6.10
2018-05-08T09:41:34.456Z,6.40
2018-05-08T09:44:00.714Z,5.77
2018-05-08T09:46:26.768Z,5.10
2018-05-08T09:48:52.836Z,6.17
2018-05-08T09:51:18.883Z,6.07
2018-05-08T09:53:44.973Z,8.13
2018-05-08T09:56:10.983Z,7.77
2018-05-08T09:58:37.017Z,7.70
2018-05-08T10:01:03.084Z,6.97
2018-05-08T10:03:29.081Z,5.67
2018-05-08T10:05:55.076Z,5.97
2018-05-08T10:08:21.081Z,6.20
2018-05-08T10:10:47.133Z,5.90
2018-05-08T10:13:13.148Z,6.00
2018-05-08T10:15:39.243Z,5.50
2018-05-08T10:18:05.266Z,5.90
2018-05-08T10:20:31.375Z,6.33
2018-05-08T10:22:57.327Z,5.80
2018-05-08T10:25:23.353Z,5.53
2018-05-08T10:27:49.374Z,5.90
2018-05-08T10:30:15.421Z,5.50
2018-05-08T10:32:41.450Z,5.33
2018-05-08T10:35:07.539Z,5.00
2018-05-08T10:37:33.633Z,5.63
2018-05-08T10:39:59.816Z,5.10
2018-05-08T10:42:25.928Z,5.67
2018-05-08T10:44:52.019Z,5.30
2018-05-08T10:47:18.028Z,6.00
2018-05-08T10:49:44.095Z,5.87
2018-05-08T10:52:10.308Z,6.17
2018-05-08T10:54:36.455Z,6.23
2018-05-08T10:57:02.576Z,6.50
2018-05-08T10:59:28.684Z,6.33
2018-05-08T11:01:54.692Z,6.13
2018-05-08T11:04:20.831Z,6.20
2018-05-08T11:06:46.907Z,5.72
2018-05-08T11:09:12.953Z,6.60
2018-05-08T11:11:38.973Z,6.47
2018-05-08T11:14:05.015Z,5.90
2018-05-08T11:16:31.672Z,6.25
2018-05-08T11:18:57.699Z,6.32
2018-05-08T11:21:23.723Z,5.90
2018-05-08T11:23:49.725Z,6.00
2018-05-08T11:26:15.770Z,6.70
2018-05-08T11:28:41.780Z,8.90
2018-05-08T11:31:07.837Z,8.23
2018-05-08T11:33:33.929Z,8.35
2018-05-08T11:36:00.030Z,8.63
2018-05-08T11:38:26.069Z,8.48
2018-05-08T11:40:52.696Z,8.10
2018-05-08T11:43:18.710Z,8.35
2018-05-08T11:45:45.589Z,9.15
2018-05-08T11:48:11.590Z,9.32
2018-05-08T11:50:37.713Z,8.65
2018-05-08T11:53:03.742Z,6.97
2018-05-08T11:55:29.813Z,7.97
2018-05-08T11:57:55.902Z,4.28
2018-05-08T12:00:21.991Z,3.58
2018-05-08T12:02:48.052Z,3.80
2018-05-08T12:05:14.255Z,3.85
2018-05-08T12:07:40.284Z,3.80
2018-05-08T12:10:06.401Z,4.03
2018-05-08T12:12:32.446Z,3.87
2018-05-08T12:14:58.498Z,3.87
2018-05-08T12:17:25.766Z,3.95
2018-05-08T12:19:51.847Z,4.00
2018-05-08T12:22:17.929Z,3.50
2018-05-08T12:24:43.998Z,5.00
2018-05-08T12:27:10.021Z,3.90
2018-05-08T12:29:36.099Z,3.40
2018-05-08T12:32:02.242Z,3.70
2018-05-08T12:34:28.665Z,3.67
2018-05-08T12:36:55.311Z,3.47
2018-05-08T12:39:21.437Z,4.15
2018-05-08T12:41:47.516Z,3.33
2018-05-08T12:44:13.579Z,2.85
2018-05-08T12:46:39.729Z,2.80
2018-05-08T12:49:06.501Z,2.72
2018-05-08T12:51:32.576Z,2.90
2018-05-08T12:53:59.538Z,3.15
2018-05-08T12:56:25.769Z,2.90
2018-05-08T12:58:51.870Z,3.25
2018-05-08T13:01:17.900Z,3.50
2018-05-08T13:03:44.926Z,3.00
2018-05-08T13:06:10.982Z,3.03
2018-05-08T13:08:37.036Z,2.77
2018-05-08T13:11:03.189Z,3.00
2018-05-08T13:13:29.171Z,2.70
2018-05-08T13:15:55.876Z,3.00
2018-05-08T13:18:21.961Z,3.47
2018-05-08T13:20:48.052Z,3.27
2018-05-08T13:23:14.074Z,3.30
2018-05-08T13:25:40.117Z,3.83
2018-05-08T13:28:06.579Z,4.37
2018-05-08T13:30:32.647Z,4.30
2018-05-08T13:32:58.905Z,4.70
2018-05-08T13:35:24.996Z,5.93
2018-05-08T13:37:51.392Z,5.13
2018-05-08T13:40:17.729Z,5.80
2018-05-08T13:42:44.355Z,7.13
2018-05-08T13:45:10.430Z,6.50
2018-05-08T13:47:36.540Z,7.03
2018-05-08T13:50:02.653Z,6.20
2018-05-08T13:52:28.681Z,6.23
2018-05-08T13:54:54.733Z,6.10
2018-05-08T13:57:20.821Z,5.67
2018-05-08T13:59:46.863Z,6.30
2018-05-08T14:02:12.935Z,5.43
2018-05-08T14:04:38.945Z,5.70
2018-05-08T14:07:04.984Z,5.47
2018-05-08T14:09:31.003Z,5.40
2018-05-08T14:11:57.036Z,5.40
2018-05-08T14:14:23.048Z,5.27
2018-05-08T14:16:49.090Z,5.77
2018-05-08T14:19:15.273Z,5.77
2018-05-08T14:21:41.177Z,5.37
2018-05-08T14:24:07.238Z,5.93
2018-05-08T14:26:33.309Z,5.30
2018-05-08T14:28:59.337Z,5.30
2018-05-08T14:31:25.446Z,5.63
2018-05-08T14:33:51.428Z,5.53
2018-05-08T14:36:17.552Z,5.43
2018-05-08T14:38:43.585Z,5.60
2018-05-08T14:41:09.634Z,5.63
2018-05-08T14:43:35.679Z,6.57
2018-05-08T14:46:01.684Z,5.87
2018-05-08T14:48:27.707Z,4.53
2018-05-08T14:50:53.725Z,4.23
2018-05-08T14:53:19.735Z,3.80
2018-05-08T14:55:45.825Z,4.57
2018-05-08T14:58:11.969Z,4.50
2018-05-08T15:00:38.078Z,4.80
2018-05-08T15:03:04.788Z,9.37
2018-05-08T15:05:30.836Z,8.40
2018-05-08T15:07:56.881Z,12.27
2018-05-08T15:10:22.904Z,10.90
2018-05-08T15:12:49.011Z,10.63
2018-05-08T15:15:15.064Z,12.13
2018-05-08T15:17:41.100Z,11.03
2018-05-08T15:20:07.229Z,11.27
2018-05-08T15:22:33.307Z,12.13
2018-05-08T15:24:59.369Z,11.33
2018-05-08T15:27:26.321Z,11.20
2018-05-08T15:29:59.188Z,10.80
2018-05-08T15:32:25.288Z,12.07
2018-05-08T15:34:51.339Z,10.43
2018-05-08T15:37:17.366Z,10.80
2018-05-08T15:39:43.413Z,11.77
2018-05-08T15:42:09.449Z,11.10
2018-05-08T15:44:35.493Z,11.67
2018-05-08T15:47:01.533Z,11.53
2018-05-08T15:49:27.589Z,11.07
2018-05-08T15:51:53.673Z,10.27
2018-05-08T15:54:19.715Z,10.20
2018-05-08T15:56:45.729Z,10.40
2018-05-08T15:59:11.773Z,10.80
2018-05-08T16:01:37.782Z,11.10
2018-05-08T16:04:03.876Z,11.50
2018-05-08T16:06:29.892Z,10.53
2018-05-08T16:08:55.908Z,10.93
2018-05-08T16:11:22.061Z,11.50
2018-05-08T16:13:48.162Z,12.17
2018-05-08T16:16:14.193Z,11.33
2018-05-08T16:18:40.235Z,11.60
2018-05-08T16:21:06.367Z,11.17
2018-05-08T16:23:32.555Z,10.23
2018-05-08T16:25:58.704Z,11.70
2018-05-08T16:28:24.772Z,11.10
2018-05-08T16:31:55.156Z,12.93
2018-05-08T16:34:21.168Z,12.50
2018-05-08T16:36:47.191Z,12.33
2018-05-08T16:39:13.206Z,13.97
2018-05-08T16:41:39.253Z,13.00
2018-05-08T16:44:05.259Z,13.63
2018-05-08T16:46:31.312Z,13.27
2018-05-08T16:48:57.336Z,13.23
2018-05-08T16:51:23.428Z,13.03
2018-05-08T16:53:49.466Z,14.63
2018-05-08T16:56:15.505Z,13.87
2018-05-08T16:58:41.503Z,11.73
2018-05-08T17:01:07.516Z,11.60
2018-05-08T17:03:33.525Z,11.47
2018-05-08T17:05:59.633Z,10.73
2018-05-08T17:08:25.671Z,10.63
2018-05-08T17:10:51.713Z,9.80
2018-05-08T17:13:17.764Z,9.87
2018-05-08T17:15:43.812Z,10.07
2018-05-08T17:18:09.873Z,10.10
2018-05-08T17:20:36.003Z,8.77
2018-05-08T17:23:02.064Z,8.00
2018-05-08T17:25:28.176Z,8.77
2018-05-08T17:27:54.250Z,8.07
2018-05-08T17:30:20.307Z,8.07
2018-05-08T17:32:46.428Z,8.93
2018-05-08T17:35:12.513Z,8.37
2018-05-08T17:37:38.800Z,10.57
2018-05-08T17:40:04.800Z,10.27
2018-05-08T17:42:30.976Z,11.23
2018-05-08T17:44:57.083Z,11.03
2018-05-08T17:47:23.156Z,10.40
2018-05-08T17:49:49.257Z,10.30
2018-05-08T17:52:15.263Z,9.87
2018-05-08T17:54:41.326Z,9.33
2018-05-08T17:57:07.436Z,9.03
2018-05-08T17:59:33.465Z,8.83
2018-05-08T18:01:59.555Z,8.13
2018-05-08T18:04:25.803Z,8.13
2018-05-08T18:06:51.704Z,8.70
2018-05-08T18:09:17.766Z,9.10
2018-05-08T18:11:43.940Z,9.17
2018-05-08T18:14:10.015Z,9.90
2018-05-08T18:16:36.140Z,9.60
2018-05-08T18:19:02.258Z,9.97
2018-05-08T18:21:28.330Z,9.40
2018-05-08T18:23:54.421Z,10.27
2018-05-08T18:26:20.677Z,9.30
2018-05-08T18:28:46.769Z,7.77
2018-05-08T18:31:12.818Z,9.57
2018-05-08T18:33:38.886Z,8.97
2018-05-08T18:36:04.912Z,8.93
2018-05-08T18:38:30.965Z,9.10
2018-05-08T18:40:57.019Z,8.67
2018-05-08T18:43:23.913Z,9.27
2018-05-08T18:45:50.043Z,9.80
2018-05-08T18:48:16.119Z,10.10
2018-05-08T18:50:42.148Z,10.37
2018-05-08T18:53:08.882Z,11.23
2018-05-08T18:55:34.948Z,11.13
2018-05-08T18:58:00.977Z,11.33
2018-05-08T19:00:27.138Z,12.03
2018-05-08T19:02:53.149Z,12.17
2018-05-08T19:05:19.359Z,13.53
2018-05-08T19:07:45.457Z,11.67
2018-05-08T19:10:11.474Z,12.90
2018-05-08T19:12:37.497Z,12.27
2018-05-08T19:15:09.526Z,12.40
2018-05-08T19:17:35.648Z,12.43
2018-05-08T19:20:04.457Z,13.13
2018-05-08T19:22:30.591Z,12.37
2018-05-08T19:24:56.740Z,11.70
2018-05-08T19:27:22.822Z,12.00
2018-05-08T19:29:54.994Z,12.57
2018-05-08T19:32:21.098Z,11.47
2018-05-08T19:34:53.230Z,11.73
2018-05-08T19:40:22.521Z,12.83
2018-05-08T19:42:48.857Z,11.97
2018-05-08T19:45:14.925Z,11.97
2018-05-08T19:47:41.007Z,12.00
2018-05-08T19:50:07.037Z,11.20
2018-05-08T19:52:33.205Z,10.03
2018-05-08T19:55:00.279Z,9.50
2018-05-08T19:57:26.420Z,9.33
2018-05-08T19:59:52.554Z,9.20
2018-05-08T20:02:18.603Z,8.67
2018-05-08T20:04:45.107Z,8.53
2018-05-08T20:07:11.128Z,8.50
2018-05-08T20:09:37.143Z,8.17
2018-05-08T20:12:03.363Z,8.93
2018-05-08T20:14:29.429Z,8.87
2018-05-08T20:16:55.437Z,9.50
2018-05-08T20:19:21.537Z,10.83
2018-05-08T20:21:47.561Z,10.97
2018-05-08T20:24:13.638Z,11.00
2018-05-08T20:26:39.724Z,11.67
2018-05-08T20:29:05.763Z,11.33
2018-05-08T20:31:32.019Z,11.33
2018-05-08T20:33:58.117Z,10.93
2018-05-08T20:36:24.386Z,11.57
2018-05-08T20:38:50.543Z,11.10
2018-05-08T20:41:16.614Z,10.23
2018-05-08T20:43:42.680Z,10.60
2018-05-08T20:46:08.792Z,11.23
2018-05-08T20:48:34.862Z,10.80
2018-05-08T20:51:01.069Z,11.20
2018-05-08T20:53:27.092Z,12.30
2018-05-08T20:55:53.133Z,14.73
2018-05-08T20:58:19.184Z,15.27
2018-05-08T21:00:45.256Z,18.00
2018-05-08T21:03:11.350Z,17.13
2018-05-08T21:05:37.400Z,13.63
2018-05-08T21:08:03.441Z,12.23
2018-05-08T21:10:29.502Z,11.93
2018-05-08T21:12:55.573Z,12.20
2018-05-08T21:15:21.716Z,12.03
2018-05-08T21:17:47.834Z,12.57
2018-05-08T21:20:13.817Z,12.87
2018-05-08T21:22:39.990Z,12.10
2018-05-08T21:25:06.058Z,12.33
2018-05-08T21:27:38.053Z,12.37
2018-05-08T21:30:09.991Z,11.73
2018-05-08T21:32:36.052Z,12.63
2018-05-08T21:35:02.206Z,12.47
2018-05-08T21:37:28.266Z,12.90
2018-05-08T21:39:54.317Z,11.50
2018-05-08T21:42:20.342Z,12.53
2018-05-08T21:44:46.908Z,13.23
2018-05-08T21:47:12.911Z,13.33
2018-05-08T21:49:39.170Z,13.87
2018-05-08T21:52:05.268Z,13.03
2018-05-08T21:54:31.197Z,12.43
2018-05-08T21:56:57.254Z,12.50
2018-05-08T21:59:23.333Z,12.80
2018-05-08T22:01:49.350Z,13.03
2018-05-08T22:04:15.358Z,14.20
2018-05-08T22:06:41.366Z,14.33
2018-05-08T22:09:07.408Z,14.00
2018-05-08T22:13:28.181Z,14.60
2018-05-08T22:15:54.230Z,13.30
2018-05-08T22:18:20.310Z,14.93
2018-05-08T22:20:46.398Z,14.97
2018-05-08T22:23:12.430Z,14.07
2018-05-08T22:25:38.463Z,14.10
2018-05-08T22:28:04.614Z,15.60
2018-05-08T22:30:30.737Z,13.93
2018-05-08T22:32:56.833Z,14.63
2018-05-08T22:35:22.854Z,14.53
2018-05-08T22:37:48.932Z,14.37
2018-05-08T22:40:15.000Z,14.70
2018-05-08T22:42:41.103Z,15.97
2018-05-08T22:45:07.074Z,15.97
2018-05-08T22:47:33.253Z,17.33
2018-05-08T22:49:59.273Z,18.90
2018-05-08T22:52:25.272Z,27.73
2018-05-08T22:54:51.306Z,31.13
2018-05-08T22:57:17.364Z,32.37
2018-05-08T22:59:43.413Z,33.77
2018-05-08T23:02:09.449Z,30.53
2018-05-08T23:04:35.469Z,30.43
2018-05-08T23:07:01.481Z,29.27
2018-05-08T23:09:27.521Z,28.40
2018-05-08T23:11:53.567Z,27.13
2018-05-08T23:14:19.618Z,25.77
2018-05-08T23:16:45.683Z,27.80
2018-05-08T23:19:11.739Z,28.73
2018-05-08T23:21:37.749Z,25.27
2018-05-08T23:24:04.551Z,25.97
2018-05-08T23:26:30.665Z,28.77
2018-05-08T23:28:56.814Z,25.63
2018-05-08T23:31:22.875Z,27.07
2018-05-08T23:33:49.081Z,24.50
2018-05-08T23:36:15.117Z,31.00
2018-05-08T23:38:41.231Z,28.47
2018-05-08T23:41:07.239Z,31.27
2018-05-08T23:43:33.260Z,36.53
2018-05-08T23:45:59.288Z,31.60
2018-05-08T23:48:25.310Z,31.97
2018-05-08T23:50:51.316Z,30.60
2018-05-08T23:53:17.440Z,36.57
2018-05-08T23:55:43.485Z,32.73
2018-05-08T23:58:09.527Z,34.17
